Time;durP1;ratioP1;P1;durP2;ratioP2;P2;SDS_P1;SDS_P2;PMS_P1;PMS_P2;Temp;Humidity;BMP_temperature;BMP_pressure;BME280_temperature;BME280_humidity;BME280_pressure;Samples;Min_cycle;Max_cycle;Signal;HPM_P1;HPM_P2
2023/04/24 00:00:17;;;;;;;27.67;11.18;;;11.30;99.90;;;;;;4068901;29;20176;-90
2023/04/24 00:02:18;;;;;;;26.48;12.05;;;11.40;99.90;;;;;;4084064;29;20172;-92
2023/04/24 00:04:19;;;;;;;29.92;11.18;;;11.30;99.90;;;;;;4068482;29;20200;-90
2023/04/24 00:06:20;;;;;;;25.42;11.23;;;11.20;99.90;;;;;;4084123;29;20175;-91
2023/04/24 00:08:22;;;;;;;26.27;11.15;;;11.10;99.90;;;;;;4068331;29;20187;-93
2023/04/24 00:10:23;;;;;;;26.88;11.50;;;11.10;99.90;;;;;;4068451;29;20251;-92
2023/04/24 00:12:24;;;;;;;31.83;12.50;;;11.20;99.90;;;;;;4084097;29;20207;-92
2023/04/24 00:14:25;;;;;;;20.10;12.15;;;11.00;99.90;;;;;;4068298;29;20210;-92
2023/04/24 00:16:26;;;;;;;20.88;11.40;;;11.10;99.90;;;;;;4068186;29;20168;-91
2023/04/24 00:18:27;;;;;;;29.92;11.13;;;11.10;99.90;;;;;;4079381;29;20188;-92
2023/04/24 00:20:29;;;;;;;29.95;11.60;;;11.10;99.90;;;;;;4084045;29;20274;-92
2023/04/24 00:22:30;;;;;;;23.25;11.30;;;11.20;99.90;;;;;;4068344;29;20228;-91
2023/04/24 00:24:31;;;;;;;24.30;11.05;;;11.30;99.90;;;;;;4083991;29;20203;-90
2023/04/24 00:26:32;;;;;;;23.73;11.05;;;11.30;99.90;;;;;;4068546;29;20188;-93
2023/04/24 00:28:33;;;;;;;21.17;11.80;;;11.10;99.90;;;;;;4084039;29;20183;-91
2023/04/24 00:30:33;;;;;;;23.80;10.77;;;11.10;99.90;;;;;;4068292;29;20176;-92
2023/04/24 00:32:34;;;;;;;27.23;11.05;;;11.00;99.90;;;;;;4070627;29;20704;-91
2023/04/24 00:34:35;;;;;;;30.33;11.55;;;10.90;99.90;;;;;;4087321;29;20211;-92
2023/04/24 00:36:36;;;;;;;24.50;11.10;;;10.90;99.90;;;;;;4071865;29;20182;-92
2023/04/24 00:38:37;;;;;;;23.70;10.82;;;10.70;99.90;;;;;;4071714;29;20181;-92
2023/04/24 00:40:38;;;;;;;20.23;11.32;;;10.60;99.90;;;;;;4071157;29;20180;-91
2023/04/24 00:42:40;;;;;;;23.88;11.90;;;10.70;99.90;;;;;;4071523;29;20187;-92
2023/04/24 00:44:41;;;;;;;26.40;11.65;;;11.00;99.90;;;;;;4084464;29;20192;-92
2023/04/24 00:46:42;;;;;;;23.00;11.38;;;11.00;99.90;;;;;;4086682;29;20230;-92
2023/04/24 00:48:43;;;;;;;21.58;11.13;;;11.10;99.90;;;;;;4071020;29;20199;-92
2023/04/24 00:50:45;;;;;;;19.33;10.52;;;10.80;99.90;;;;;;4102871;29;20178;-93
2023/04/24 00:52:48;;;;;;;24.05;11.30;;;10.80;99.90;;;;;;4071141;29;20680;-94
2023/04/24 00:54:49;;;;;;;26.00;11.73;;;10.80;99.90;;;;;;4086847;29;20592;-92
2023/04/24 00:56:51;;;;;;;27.23;11.80;;;10.90;99.90;;;;;;4071256;29;20172;-91
2023/04/24 00:58:52;;;;;;;22.83;11.50;;;10.80;99.90;;;;;;4069902;29;20169;-91
2023/04/24 01:00:54;;;;;;;19.00;11.32;;;10.70;99.90;;;;;;4070840;29;20181;-92
2023/04/24 01:02:55;;;;;;;25.00;11.73;;;10.60;99.90;;;;;;4086706;29;20700;-93
2023/04/24 01:04:56;;;;;;;27.15;11.75;;;10.60;99.90;;;;;;4070751;29;20192;-92
2023/04/24 01:06:57;;;;;;;21.75;11.73;;;10.60;99.90;;;;;;4070863;29;20263;-93
2023/04/24 01:09:00;;;;;;;22.63;11.65;;;10.60;99.90;;;;;;4086904;29;20187;-92
2023/04/24 01:11:03;;;;;;;26.83;11.80;;;10.60;99.90;;;;;;4086616;29;20705;-92
2023/04/24 01:13:04;;;;;;;25.85;11.38;;;10.40;99.90;;;;;;4086668;29;20229;-93
2023/04/24 01:15:06;;;;;;;22.80;11.60;;;10.40;99.90;;;;;;4086297;29;20259;-93
2023/04/24 01:17:09;;;;;;;26.30;11.32;;;10.60;99.90;;;;;;4070832;29;20188;-93
2023/04/24 01:19:11;;;;;;;22.35;11.77;;;10.70;99.90;;;;;;4070783;29;20176;-91
2023/04/24 01:21:14;;;;;;;23.65;10.80;;;10.70;99.90;;;;;;4086452;29;20182;-92
2023/04/24 01:23:16;;;;;;;18.23;10.40;;;10.80;99.90;;;;;;4102221;29;20175;-92
2023/04/24 01:25:16;;;;;;;18.65;10.45;;;10.80;99.90;;;;;;4086595;29;20172;-92
2023/04/24 01:27:17;;;;;;;18.25;9.50;;;10.80;99.90;;;;;;4065048;29;20180;-92
2023/04/24 01:29:20;;;;;;;19.63;9.02;;;10.80;99.90;;;;;;4086332;29;20206;-92
2023/04/24 01:31:20;;;;;;;15.02;8.77;;;10.80;99.90;;;;;;4086405;29;20195;-92
2023/04/24 01:33:22;;;;;;;19.85;8.60;;;10.60;99.90;;;;;;4070275;29;20227;-92
2023/04/24 01:35:22;;;;;;;17.05;8.32;;;10.50;99.90;;;;;;4086366;29;20187;-92
2023/04/24 01:37:23;;;;;;;14.80;8.05;;;10.40;99.90;;;;;;4070768;29;20548;-92
2023/04/24 01:39:25;;;;;;;14.52;8.10;;;10.30;99.90;;;;;;4070636;29;20196;-93
2023/04/24 01:41:29;;;;;;;16.67;7.78;;;10.30;99.90;;;;;;4070868;29;20270;-92
2023/04/24 01:43:30;;;;;;;15.98;8.07;;;10.30;99.90;;;;;;4070747;29;20200;-91
2023/04/24 01:45:32;;;;;;;17.02;7.95;;;10.30;99.90;;;;;;4086395;29;20691;-93
2023/04/24 01:47:33;;;;;;;17.63;8.35;;;10.40;99.90;;;;;;4086222;29;20652;-93
2023/04/24 01:49:34;;;;;;;15.82;8.75;;;10.30;99.90;;;;;;4086431;29;20191;-92
2023/04/24 01:51:35;;;;;;;18.05;9.25;;;10.50;99.90;;;;;;4086192;29;20182;-92
2023/04/24 01:53:37;;;;;;;15.68;9.00;;;10.50;99.90;;;;;;4071054;29;20212;-93
2023/04/24 01:55:38;;;;;;;15.25;8.65;;;10.50;99.90;;;;;;4086180;29;20183;-91
2023/04/24 01:57:40;;;;;;;13.98;7.82;;;10.50;99.90;;;;;;4085743;29;20179;-92
2023/04/24 01:59:40;;;;;;;17.45;8.07;;;10.60;99.90;;;;;;4070156;29;20181;-90
2023/04/24 02:01:41;;;;;;;18.58;7.88;;;10.70;99.90;;;;;;4070427;29;20179;-91
2023/04/24 02:03:42;;;;;;;17.95;8.25;;;10.70;99.90;;;;;;4085780;29;20199;-91
2023/04/24 02:05:45;;;;;;;17.90;7.95;;;10.70;99.90;;;;;;4070316;29;20172;-92
2023/04/24 02:07:46;;;;;;;18.17;8.15;;;10.60;99.90;;;;;;4086016;29;20187;-92
2023/04/24 02:09:47;;;;;;;20.67;8.02;;;10.50;99.90;;;;;;4086052;29;20164;-93
2023/04/24 02:11:48;;;;;;;15.90;7.55;;;10.30;99.90;;;;;;4070101;29;20203;-91
2023/04/24 02:13:50;;;;;;;23.83;7.93;;;10.30;99.90;;;;;;4070167;29;20232;-93
2023/04/24 02:15:50;;;;;;;18.55;7.90;;;10.20;99.90;;;;;;4085756;29;20711;-92
2023/04/24 02:17:51;;;;;;;15.15;8.30;;;10.10;99.90;;;;;;4069999;29;20176;-93
2023/04/24 02:19:52;;;;;;;16.92;8.32;;;10.30;99.90;;;;;;4085916;29;20176;-91
2023/04/24 02:21:53;;;;;;;18.50;8.60;;;10.30;99.90;;;;;;4085841;29;20187;-90
2023/04/24 02:23:54;;;;;;;17.88;8.73;;;10.30;99.90;;;;;;4069917;29;20196;-93
2023/04/24 02:25:55;;;;;;;18.13;8.55;;;10.30;99.90;;;;;;4085457;29;20667;-91
2023/04/24 02:27:56;;;;;;;25.13;8.65;;;10.30;99.90;;;;;;4069854;29;20184;-92
2023/04/24 02:29:57;;;;;;;17.23;9.00;;;10.50;99.90;;;;;;4085706;29;20189;-91
2023/04/24 02:31:57;;;;;;;18.92;8.60;;;10.50;99.90;;;;;;4069648;29;20184;-92
2023/04/24 02:33:58;;;;;;;17.30;8.48;;;10.30;99.90;;;;;;4085322;29;20243;-91
2023/04/24 02:35:59;;;;;;;13.52;8.25;;;10.40;99.90;;;;;;4069610;29;20172;-95
2023/04/24 02:38:00;;;;;;;16.60;8.55;;;10.40;99.90;;;;;;4069770;29;20262;-91
2023/04/24 02:40:01;;;;;;;18.92;9.05;;;10.30;99.90;;;;;;4077590;29;20172;-90
2023/04/24 02:42:01;;;;;;;20.17;9.07;;;10.20;99.90;;;;;;4069920;29;20175;-91
2023/04/24 02:44:02;;;;;;;22.38;7.93;;;10.10;99.90;;;;;;4085483;29;20286;-92
2023/04/24 02:46:03;;;;;;;17.48;8.90;;;10.20;99.90;;;;;;4077629;29;20278;-91
2023/04/24 02:48:04;;;;;;;18.13;8.65;;;10.40;99.90;;;;;;4085214;29;20262;-93
2023/04/24 02:50:05;;;;;;;23.50;8.77;;;10.30;99.90;;;;;;4085541;29;20268;-90
2023/04/24 02:52:06;;;;;;;13.70;7.70;;;10.30;99.90;;;;;;4069616;29;20181;-91
2023/04/24 02:54:09;;;;;;;15.80;7.90;;;10.20;99.90;;;;;;4084645;29;20211;-91
2023/04/24 02:56:12;;;;;;;13.77;7.70;;;10.20;99.90;;;;;;4085448;29;20287;-91
2023/04/24 02:58:12;;;;;;;18.25;8.30;;;10.30;99.90;;;;;;4085424;29;20194;-91
2023/04/24 03:00:14;;;;;;;20.92;8.68;;;10.30;99.90;;;;;;4085223;29;20211;-90
2023/04/24 03:02:14;;;;;;;14.43;8.25;;;10.20;99.90;;;;;;4069795;29;20173;-90
2023/04/24 03:04:16;;;;;;;15.45;8.68;;;10.10;99.90;;;;;;4069365;29;20199;-92
2023/04/24 03:06:17;;;;;;;13.90;7.33;;;10.20;99.90;;;;;;4085067;29;20179;-90
2023/04/24 03:08:18;;;;;;;20.83;7.97;;;10.20;99.90;;;;;;4085109;29;20180;-91
2023/04/24 03:10:19;;;;;;;14.13;7.53;;;10.20;99.90;;;;;;4084991;29;20202;-90
2023/04/24 03:12:20;;;;;;;19.92;7.60;;;10.10;99.90;;;;;;4084761;29;20711;-91
2023/04/24 03:14:20;;;;;;;14.80;8.23;;;10.30;99.90;;;;;;4084576;29;20242;-91
2023/04/24 03:16:21;;;;;;;12.82;7.35;;;10.20;99.90;;;;;;4084673;29;20520;-91
2023/04/24 03:18:22;;;;;;;17.33;7.80;;;10.00;99.90;;;;;;4084871;29;20179;-89
2023/04/24 03:20:24;;;;;;;16.42;7.22;;;9.90;99.90;;;;;;4084896;29;20176;-89
2023/04/24 03:22:25;;;;;;;16.40;7.77;;;10.10;99.90;;;;;;4084990;29;20183;-90
2023/04/24 03:24:27;;;;;;;13.82;7.93;;;10.20;99.90;;;;;;4069197;29;20219;-91
2023/04/24 03:26:29;;;;;;;14.57;7.65;;;10.40;99.90;;;;;;4064951;29;20236;-90
2023/04/24 03:28:47;;;;;;;10.15;7.13;;;10.40;99.90;;;;;;4086805;29;20175;-91
2023/04/24 03:30:48;;;;;;;15.50;6.82;;;10.40;99.90;;;;;;4069025;29;20532;-89
2023/04/24 03:32:50;;;;;;;12.82;7.55;;;10.40;99.90;;;;;;4083390;29;20306;-90
2023/04/24 03:34:56;;;;;;;11.45;6.82;;;10.40;99.90;;;;;;4084596;29;20235;-90
2023/04/24 03:36:56;;;;;;;10.75;6.82;;;10.30;99.90;;;;;;4084540;29;20175;-91
2023/04/24 03:38:57;;;;;;;11.95;6.38;;;10.40;99.90;;;;;;4069079;29;20186;-91
2023/04/24 03:41:03;;;;;;;11.52;6.28;;;10.50;99.90;;;;;;4069622;29;20287;-90
2023/04/24 03:43:14;;;;;;;11.40;6.30;;;10.60;99.90;;;;;;4084413;29;20628;-90
2023/04/24 03:45:15;;;;;;;10.10;5.93;;;10.40;99.90;;;;;;4084660;29;20184;-90
2023/04/24 03:47:20;;;;;;;8.70;5.80;;;10.50;99.90;;;;;;4084573;29;20186;-89
2023/04/24 03:49:22;;;;;;;7.47;5.40;;;10.40;99.90;;;;;;4084418;29;20376;-91
2023/04/24 03:51:23;;;;;;;9.73;5.32;;;10.60;99.90;;;;;;4068707;29;20581;-90
2023/04/24 03:53:27;;;;;;;10.18;4.97;;;10.50;99.90;;;;;;4084026;29;20250;-90
2023/04/24 03:55:30;;;;;;;8.57;5.35;;;10.30;99.90;;;;;;4084336;29;20534;-90
2023/04/24 03:57:30;;;;;;;10.65;6.07;;;10.30;99.90;;;;;;4084574;29;20180;-89
2023/04/24 03:59:47;;;;;;;11.13;5.90;;;10.30;99.90;;;;;;4070676;29;20180;-90
2023/04/24 04:01:51;;;;;;;7.07;5.63;;;10.40;99.90;;;;;;4100139;29;20187;-91
2023/04/24 04:03:52;;;;;;;8.77;5.25;;;10.30;99.90;;;;;;4068741;29;20390;-89
2023/04/24 04:05:56;;;;;;;14.25;5.55;;;10.30;99.90;;;;;;4083793;29;20187;-90
2023/04/24 04:07:57;;;;;;;8.70;4.93;;;10.30;99.90;;;;;;4084596;29;20656;-90
2023/04/24 04:09:58;;;;;;;10.60;5.53;;;10.40;99.90;;;;;;4084198;29;20704;-90
2023/04/24 04:12:00;;;;;;;8.43;4.47;;;10.50;99.90;;;;;;4084439;29;20262;-90
2023/04/24 04:14:01;;;;;;;9.03;4.97;;;10.40;99.90;;;;;;4084202;29;20287;-90
2023/04/24 04:16:02;;;;;;;10.88;5.35;;;10.40;99.90;;;;;;4099948;29;20175;-90
2023/04/24 04:18:03;;;;;;;8.25;5.53;;;10.30;99.90;;;;;;4068656;29;20207;-90
2023/04/24 04:20:09;;;;;;;13.02;5.80;;;10.40;99.90;;;;;;4068581;29;20168;-89
2023/04/24 04:22:11;;;;;;;10.53;5.50;;;10.40;99.90;;;;;;4099925;29;20178;-89
2023/04/24 04:24:16;;;;;;;15.20;6.45;;;10.30;99.90;;;;;;4084029;29;20234;-90
2023/04/24 04:26:21;;;;;;;10.10;6.00;;;10.20;99.90;;;;;;4084389;29;20183;-91
2023/04/24 04:28:39;;;;;;;11.93;6.77;;;10.10;99.90;;;;;;4070770;29;20186;-90
2023/04/24 04:30:41;;;;;;;14.30;7.87;;;10.10;99.90;;;;;;4083994;29;20179;-90
2023/04/24 04:32:41;;;;;;;14.83;8.10;;;10.20;99.90;;;;;;4068386;29;20212;-89
2023/04/24 04:34:45;;;;;;;15.67;7.87;;;10.30;99.90;;;;;;4068239;29;20207;-89
2023/04/24 04:36:46;;;;;;;10.93;5.57;;;10.30;99.90;;;;;;4068207;29;20165;-88
2023/04/24 04:39:19;;;;;;;14.33;6.30;;;10.00;99.90;;;;;;4088214;29;20537;-89
2023/04/24 04:41:48;;;;;;;16.40;9.37;;;9.60;99.90;;;;;;4085318;29;20271;-90
2023/04/24 04:43:49;;;;;;;20.83;9.17;;;9.60;99.90;;;;;;4083715;29;20289;-89
2023/04/24 04:45:52;;;;;;;19.70;9.33;;;9.70;99.90;;;;;;4068059;29;20240;-90
2023/04/24 04:48:03;;;;;;;24.13;10.17;;;9.70;99.90;;;;;;4084930;29;20190;-90
2023/04/24 04:50:05;;;;;;;21.33;9.47;;;9.80;99.90;;;;;;4083838;29;20175;-91
2023/04/24 04:52:07;;;;;;;23.30;10.50;;;9.70;99.90;;;;;;4068134;29;20184;-89
2023/04/24 04:54:08;;;;;;;18.50;10.07;;;9.70;99.90;;;;;;4067909;29;20215;-89
2023/04/24 04:56:10;;;;;;;17.23;10.37;;;9.70;99.90;;;;;;4068227;29;20178;-89
2023/04/24 04:58:15;;;;;;;22.43;11.23;;;9.60;99.90;;;;;;4068700;29;20172;-90
2023/04/24 05:00:16;;;;;;;29.70;10.90;;;9.70;99.90;;;;;;4083820;29;20763;-90
2023/04/24 05:02:22;;;;;;;21.37;11.57;;;9.80;99.90;;;;;;4083897;29;20249;-91
2023/04/24 05:04:23;;;;;;;26.30;11.30;;;9.90;99.90;;;;;;4068048;29;20204;-90
2023/04/24 05:06:25;;;;;;;27.03;12.23;;;9.80;99.90;;;;;;4067942;29;20179;-89
2023/04/24 05:08:26;;;;;;;25.57;12.27;;;9.90;99.90;;;;;;4083896;29;20282;-89
2023/04/24 05:10:27;;;;;;;23.53;12.03;;;10.00;99.90;;;;;;4083749;29;20186;-90
2023/04/24 05:12:30;;;;;;;28.60;12.57;;;9.80;99.90;;;;;;4068249;29;20216;-90
2023/04/24 05:14:31;;;;;;;26.92;12.48;;;9.90;99.90;;;;;;4083705;29;20191;-90
2023/04/24 05:16:32;;;;;;;20.48;11.70;;;9.80;99.90;;;;;;4083634;29;20711;-90
2023/04/24 05:18:33;;;;;;;18.30;10.20;;;9.90;99.90;;;;;;4071478;29;20518;-90
2023/04/24 05:20:35;;;;;;;20.02;11.52;;;10.00;99.90;;;;;;4071379;29;20653;-89
2023/04/24 05:22:36;;;;;;;24.97;10.63;;;10.10;99.90;;;;;;4071101;29;20312;-90
2023/04/24 05:24:37;;;;;;;24.20;11.67;;;10.20;99.90;;;;;;4087048;29;20195;-90
2023/04/24 05:26:59;;;;;;;23.00;11.57;;;10.20;99.90;;;;;;4085879;29;20194;-90
2023/04/24 05:29:05;;;;;;;24.17;10.80;;;10.10;99.90;;;;;;4087292;29;20264;-90
2023/04/24 05:31:06;;;;;;;20.55;11.23;;;10.00;99.90;;;;;;4070996;29;20168;-91
2023/04/24 05:33:08;;;;;;;22.73;10.90;;;10.10;99.90;;;;;;4070566;29;20216;-90
2023/04/24 05:35:12;;;;;;;24.42;11.30;;;10.20;99.90;;;;;;4080145;29;20167;-93
2023/04/24 05:37:13;;;;;;;19.83;12.27;;;10.30;99.90;;;;;;4097105;29;20206;-94
2023/04/24 05:39:15;;;;;;;21.90;10.98;;;10.20;99.90;;;;;;4086702;29;20182;-93
2023/04/24 05:41:16;;;;;;;31.33;11.23;;;10.20;99.90;;;;;;4081759;29;20171;-94
2023/04/24 05:43:17;;;;;;;21.27;10.50;;;10.20;99.90;;;;;;4071114;29;20172;-93
2023/04/24 05:45:17;;;;;;;23.23;10.30;;;10.10;99.90;;;;;;4087542;29;20231;-93
2023/04/24 05:47:18;;;;;;;22.92;10.23;;;10.10;99.90;;;;;;4070915;29;20181;-94
2023/04/24 05:49:19;;;;;;;27.75;10.55;;;10.10;99.90;;;;;;4086751;29;20279;-94
2023/04/24 05:51:20;;;;;;;18.50;10.00;;;10.00;99.90;;;;;;4071222;29;20176;-94
2023/04/24 05:53:21;;;;;;;19.02;10.45;;;10.10;99.90;;;;;;4086027;29;20322;-92
2023/04/24 05:55:22;;;;;;;25.70;11.25;;;10.00;99.90;;;;;;4086843;29;20182;-93
2023/04/24 05:57:23;;;;;;;28.70;10.95;;;10.20;99.90;;;;;;4086687;29;20199;-94
2023/04/24 05:59:31;;;;;;;27.77;10.77;;;10.20;99.90;;;;;;4086636;29;20230;-93
2023/04/24 06:01:32;;;;;;;31.20;10.88;;;10.20;99.90;;;;;;4086579;29;20278;-94
2023/04/24 06:03:42;;;;;;;24.55;10.77;;;10.10;99.90;;;;;;4087283;29;20609;-94
2023/04/24 06:05:43;;;;;;;23.08;10.85;;;10.10;99.90;;;;;;4103595;29;20167;-94
2023/04/24 06:07:44;;;;;;;26.83;11.30;;;10.20;99.90;;;;;;4087110;29;20187;-94
2023/04/24 06:09:47;;;;;;;22.83;11.40;;;10.20;99.90;;;;;;4086977;29;20182;-92
2023/04/24 06:11:49;;;;;;;29.20;11.55;;;10.10;99.90;;;;;;4071184;29;20637;-93
2023/04/24 06:13:54;;;;;;;24.80;12.17;;;10.20;99.90;;;;;;4087430;29;20215;-93
2023/04/24 06:16:13;;;;;;;51.78;28.02;;;10.10;99.90;;;;;;4089449;29;20167;-94
2023/04/24 06:18:17;;;;;;;83.40;45.20;;;9.90;99.90;;;;;;4087484;29;20206;-94
2023/04/24 06:20:18;;;;;;;26.55;15.02;;;9.80;99.90;;;;;;4071331;29;20217;-92
2023/04/24 06:22:22;;;;;;;26.73;12.00;;;9.80;99.90;;;;;;4086097;29;20179;-94
2023/04/24 06:24:27;;;;;;;33.03;18.08;;;9.80;99.90;;;;;;4101626;28;20195;-93
2023/04/24 06:26:28;;;;;;;30.35;16.02;;;9.80;99.90;;;;;;4101850;28;20175;-92
2023/04/24 06:28:29;;;;;;;27.35;13.57;;;9.80;99.90;;;;;;4085811;29;20199;-94
2023/04/24 06:30:30;;;;;;;36.33;16.88;;;10.00;99.90;;;;;;4085822;29;20168;-93
2023/04/24 06:32:31;;;;;;;30.02;15.35;;;10.20;99.90;;;;;;4070576;29;20215;-94
2023/04/24 06:34:36;;;;;;;31.77;15.32;;;10.20;99.90;;;;;;4087083;29;20255;-94
2023/04/24 06:36:37;;;;;;;29.95;14.88;;;10.20;99.90;;;;;;4070878;29;20263;-93
2023/04/24 06:38:38;;;;;;;33.20;15.02;;;10.30;99.90;;;;;;4087097;29;20572;-93
2023/04/24 06:40:39;;;;;;;32.67;14.88;;;10.30;99.90;;;;;;4086753;29;20201;-93
2023/04/24 06:42:40;;;;;;;31.63;15.02;;;10.10;99.90;;;;;;4086376;29;20203;-93
2023/04/24 06:44:43;;;;;;;26.20;14.07;;;10.20;99.90;;;;;;4071361;29;20200;-94
2023/04/24 06:46:43;;;;;;;34.30;14.48;;;10.30;99.90;;;;;;4086657;29;20193;-94
2023/04/24 06:48:44;;;;;;;37.75;14.60;;;10.40;99.90;;;;;;4069866;29;20187;-94
2023/04/24 06:50:46;;;;;;;30.45;14.65;;;10.40;99.90;;;;;;4086203;29;20660;-95
2023/04/24 06:52:47;;;;;;;29.50;15.32;;;10.40;99.90;;;;;;4086030;29;20211;-93
2023/04/24 06:54:49;;;;;;;34.92;15.93;;;10.60;99.90;;;;;;4071373;29;20243;-94
2023/04/24 06:56:51;;;;;;;38.42;16.17;;;10.70;99.90;;;;;;4086387;29;20223;-92
2023/04/24 06:58:52;;;;;;;32.25;14.93;;;10.80;99.90;;;;;;4102041;29;20163;-93
2023/04/24 07:00:52;;;;;;;43.60;14.88;;;10.80;99.90;;;;;;4085989;29;20179;-94
2023/04/24 07:02:53;;;;;;;31.35;14.13;;;10.80;99.90;;;;;;4069984;29;20614;-92
2023/04/24 07:04:54;;;;;;;31.17;14.45;;;10.80;99.90;;;;;;4085655;29;20195;-94
2023/04/24 07:06:55;;;;;;;35.35;13.70;;;10.70;99.90;;;;;;4069936;29;20180;-94
2023/04/24 07:08:56;;;;;;;29.40;14.45;;;10.80;99.90;;;;;;4069626;29;20180;-95
2023/04/24 07:10:57;;;;;;;26.95;14.20;;;10.90;99.90;;;;;;4085599;29;20271;-92
2023/04/24 07:12:59;;;;;;;43.95;14.60;;;11.10;99.90;;;;;;4070006;29;20668;-93
2023/04/24 07:15:00;;;;;;;36.55;14.63;;;11.20;99.90;;;;;;4085237;29;20203;-93
2023/04/24 07:17:03;;;;;;;31.17;15.20;;;11.20;99.90;;;;;;4085446;29;20274;-94
2023/04/24 07:19:06;;;;;;;27.48;14.80;;;11.10;99.90;;;;;;4085420;29;20231;-93
2023/04/24 07:21:07;;;;;;;32.35;14.15;;;10.90;99.90;;;;;;4085533;29;20620;-94
2023/04/24 07:23:07;;;;;;;34.30;13.20;;;10.90;99.90;;;;;;4086224;29;20172;-94
2023/04/24 07:25:09;;;;;;;25.92;12.95;;;10.90;99.90;;;;;;4069767;29;20176;-91
2023/04/24 07:27:10;;;;;;;30.23;13.32;;;10.70;99.90;;;;;;4085419;29;20195;-92
2023/04/24 07:29:10;;;;;;;21.48;11.32;;;10.80;99.90;;;;;;4085271;29;20271;-94
2023/04/24 07:31:11;;;;;;;24.60;12.13;;;10.50;99.90;;;;;;4079144;29;20180;-94
2023/04/24 07:33:13;;;;;;;26.63;12.43;;;10.60;99.90;;;;;;4069356;29;20218;-93
2023/04/24 07:35:14;;;;;;;27.08;11.18;;;10.70;99.90;;;;;;4069802;29;20561;-93
2023/04/24 07:37:14;;;;;;;25.35;10.43;;;10.90;99.90;;;;;;4086420;29;20183;-93
2023/04/24 07:39:15;;;;;;;24.65;10.00;;;11.30;99.90;;;;;;4069802;29;20173;-92
2023/04/24 07:41:16;;;;;;;23.88;9.65;;;11.50;99.90;;;;;;4084850;29;20180;-92
2023/04/24 07:43:21;;;;;;;24.38;9.68;;;11.60;99.90;;;;;;4070012;29;20197;-95
2023/04/24 07:45:23;;;;;;;31.58;12.57;;;11.70;99.90;;;;;;4069690;29;20176;-92
2023/04/24 07:47:24;;;;;;;19.48;8.55;;;11.60;99.90;;;;;;4069829;29;20214;-91
2023/04/24 07:49:25;;;;;;;22.90;8.48;;;11.60;99.90;;;;;;4085433;29;20175;-91
2023/04/24 07:51:27;;;;;;;22.13;8.73;;;11.50;99.90;;;;;;4086454;29;20176;-92
2023/04/24 07:53:27;;;;;;;22.73;7.85;;;11.40;99.90;;;;;;4070127;29;20219;-91
2023/04/24 07:55:32;;;;;;;18.48;7.57;;;11.40;99.90;;;;;;4085007;29;20570;-93
2023/04/24 07:57:33;;;;;;;22.95;8.55;;;11.30;99.90;;;;;;4086254;29;20255;-93
2023/04/24 07:59:35;;;;;;;17.42;6.15;;;11.30;99.90;;;;;;4085438;29;20620;-94
2023/04/24 08:01:36;;;;;;;21.70;7.20;;;11.10;99.90;;;;;;4102685;29;20190;-93
2023/04/24 08:03:36;;;;;;;16.95;7.97;;;11.10;99.90;;;;;;4072506;29;20267;-92
2023/04/24 08:05:37;;;;;;;16.08;7.35;;;11.20;99.90;;;;;;4085405;29;20179;-91
2023/04/24 08:07:42;;;;;;;22.95;7.90;;;11.30;99.90;;;;;;4070707;29;20168;-92
2023/04/24 08:09:43;;;;;;;18.40;7.47;;;11.50;99.90;;;;;;4071088;29;20323;-93
2023/04/24 08:11:46;;;;;;;21.95;7.95;;;11.70;99.90;;;;;;4069845;29;20188;-93
2023/04/24 08:13:47;;;;;;;18.85;6.28;;;11.80;99.90;;;;;;4069560;29;20689;-93
2023/04/24 08:15:48;;;;;;;23.88;7.18;;;11.60;99.90;;;;;;4072858;29;20183;-94
2023/04/24 08:17:50;;;;;;;15.77;6.53;;;11.60;99.90;;;;;;4086930;29;20266;-95
2023/04/24 08:19:53;;;;;;;12.70;6.03;;;11.40;99.90;;;;;;4086016;29;20179;-94
2023/04/24 08:21:56;;;;;;;16.40;6.15;;;11.20;99.90;;;;;;4119197;28;20159;-92
2023/04/24 08:23:57;;;;;;;17.33;6.57;;;11.30;99.90;;;;;;4088264;29;20176;-93
2023/04/24 08:25:58;;;;;;;16.50;6.22;;;11.80;99.90;;;;;;4088526;29;20176;-94
2023/04/24 08:27:59;;;;;;;7.15;3.13;;;12.00;99.90;;;;;;4073408;29;20185;-94
2023/04/24 08:30:00;;;;;;;12.63;5.10;;;12.20;99.90;;;;;;4069831;29;20176;-94
2023/04/24 08:32:01;;;;;;;17.95;4.53;;;12.60;99.90;;;;;;4070015;29;20184;-94
2023/04/24 08:34:05;;;;;;;14.60;4.55;;;13.50;99.90;;;;;;4085601;29;20292;-94
2023/04/24 08:36:06;;;;;;;10.82;3.42;;;14.10;99.90;;;;;;4085375;29;20188;-94
2023/04/24 08:38:07;;;;;;;13.25;4.15;;;14.60;99.90;;;;;;4069477;29;20173;-94
2023/04/24 08:40:16;;;;;;;14.75;4.75;;;14.30;99.90;;;;;;4069584;29;20630;-94
2023/04/24 08:42:19;;;;;;;9.32;4.03;;;14.70;99.90;;;;;;4070546;29;20191;-95
2023/04/24 08:44:23;;;;;;;11.40;4.18;;;15.00;99.90;;;;;;4072517;29;20283;-95
2023/04/24 08:46:24;;;;;;;12.43;4.70;;;15.80;99.90;;;;;;4072112;29;20188;-93
2023/04/24 08:48:26;;;;;;;13.45;3.25;;;16.40;99.90;;;;;;4071470;29;20191;-93
2023/04/24 08:50:28;;;;;;;11.07;3.85;;;15.90;99.90;;;;;;4085774;29;20171;-93
2023/04/24 08:52:30;;;;;;;13.80;3.75;;;15.10;99.90;;;;;;4087107;29;20227;-94
2023/04/24 08:54:35;;;;;;;7.28;3.08;;;15.20;99.90;;;;;;4088338;29;20280;-93
2023/04/24 09:15:03;;;;;;;19.48;4.28;;;13.60;99.90;;;;;;4155406;23;20343;-93
2023/04/24 09:17:33;;;;;;;9.63;3.72;;;14.10;99.90;;;;;;4071152;29;20225;-93
2023/04/24 09:19:36;;;;;;;11.65;3.10;;;14.50;99.90;;;;;;4071154;29;20278;-93
2023/04/24 09:21:37;;;;;;;7.47;2.95;;;15.00;99.90;;;;;;4071278;29;20237;-94
2023/04/24 09:23:38;;;;;;;8.73;3.10;;;15.50;99.90;;;;;;4070265;29;20192;-94
2023/04/24 09:25:40;;;;;;;11.65;3.05;;;15.30;99.90;;;;;;4055830;29;20235;-91
2023/04/24 09:27:46;;;;;;;9.43;2.80;;;14.90;99.90;;;;;;4055517;29;20264;-93
2023/04/24 09:29:57;;;;;;;10.85;3.30;;;14.60;99.90;;;;;;4056224;29;20177;-92
2023/04/24 09:31:57;;;;;;;10.25;3.05;;;14.20;99.90;;;;;;4056746;29;20181;-95
2023/04/24 09:34:01;;;;;;;9.02;3.22;;;13.50;99.90;;;;;;4070785;29;20298;-93
2023/04/24 09:36:05;;;;;;;8.80;3.35;;;13.30;99.90;;;;;;4055496;29;20552;-92
2023/04/24 09:38:06;;;;;;;13.18;3.88;;;13.20;99.90;;;;;;4054532;29;20184;-94
2023/04/24 09:40:19;;;;;;;9.55;3.03;;;12.80;99.90;;;;;;4070125;29;20187;-94
2023/04/24 09:42:27;;;;;;;9.38;2.80;;;12.70;99.90;;;;;;4056991;29;20181;-94
2023/04/24 09:44:28;;;;;;;9.93;3.00;;;12.90;99.90;;;;;;4057268;29;20184;-92
2023/04/24 09:46:31;;;;;;;11.93;3.17;;;12.80;99.90;;;;;;4056739;29;20235;-92
2023/04/24 09:48:38;;;;;;;12.80;2.95;;;12.80;99.90;;;;;;4072708;29;20168;-92
2023/04/24 09:50:51;;;;;;;11.15;3.35;;;12.80;99.90;;;;;;4056245;29;20598;-93
2023/04/24 09:53:05;;;;;;;12.05;3.38;;;12.70;99.90;;;;;;4056792;29;20220;-93
2023/04/24 09:55:13;;;;;;;11.27;3.58;;;12.70;99.90;;;;;;4073432;29;20236;-92
2023/04/24 09:57:14;;;;;;;12.82;3.70;;;12.90;99.90;;;;;;4055697;29;20203;-93
2023/04/24 09:59:21;;;;;;;14.00;4.10;;;13.00;99.90;;;;;;4057742;29;20173;-95
2023/04/24 10:01:33;;;;;;;12.90;4.50;;;13.00;99.90;;;;;;4060895;29;20176;-94
2023/04/24 10:03:35;;;;;;;12.10;3.88;;;13.20;99.90;;;;;;4072544;29;20279;-94
2023/04/24 10:05:39;;;;;;;17.80;4.93;;;13.10;99.90;;;;;;4072791;29;20173;-94
2023/04/24 10:08:06;;;;;;;15.10;4.95;;;13.10;99.90;;;;;;4067419;29;20217;-95
2023/04/24 10:10:11;;;;;;;14.20;4.15;;;13.40;99.90;;;;;;4079639;29;20157;-92
2023/04/24 10:12:21;;;;;;;10.82;4.20;;;13.00;99.90;;;;;;4077293;29;20932;-92
2023/04/24 10:14:23;;;;;;;11.02;4.40;;;13.00;99.90;;;;;;4061208;29;20223;-96
2023/04/24 10:16:46;;;;;;;13.85;5.05;;;13.00;99.90;;;;;;4062579;29;20169;-94
2023/04/24 10:19:13;;;;;;;12.70;4.25;;;13.10;99.90;;;;;;4097455;29;20223;-96
2023/04/24 10:21:23;;;;;;;13.32;4.45;;;13.30;99.90;;;;;;4076713;29;20195;-93
2023/04/24 10:23:30;;;;;;;11.98;3.90;;;13.70;99.90;;;;;;4076146;29;20204;-95
2023/04/24 10:25:37;;;;;;;12.07;4.25;;;13.70;99.90;;;;;;4058592;29;20157;-93
2023/04/24 10:27:39;;;;;;;12.05;4.32;;;13.60;99.90;;;;;;4077489;29;20182;-94
2023/04/24 10:30:40;;;;;;;;;;;;;;;;;;;;;
2023/04/24 10:32:45;;;;;;;9.95;4.20;;;13.60;99.90;;;;;;4069250;29;20231;-94
2023/04/24 10:41:22;;;;;;;7.80;4.18;;;13.80;99.90;;;;;;4090939;29;20262;-95
2023/04/24 10:43:26;;;;;;;14.85;5.05;;;13.90;99.90;;;;;;4056622;29;20299;-93
2023/04/24 10:45:28;;;;;;;14.57;4.70;;;14.20;99.90;;;;;;4054662;29;20696;-94
2023/04/24 10:47:30;;;;;;;11.77;3.95;;;14.30;99.90;;;;;;4070465;29;20264;-93
2023/04/24 10:49:35;;;;;;;11.05;4.10;;;14.10;99.90;;;;;;4070729;29;20175;-94
2023/04/24 10:51:53;;;;;;;10.27;4.40;;;14.00;99.90;;;;;;4070578;29;20175;-93
2023/04/24 10:54:01;;;;;;;9.20;3.72;;;14.10;99.90;;;;;;4070227;29;20703;-94
2023/04/24 10:56:15;;;;;;;11.05;3.97;;;14.00;99.90;;;;;;4073639;29;20305;-95